• Join FlightAware (Why Join?)
  • Login
  • US Flag 
04:30AM EDT


 

Airport Tracker/Info


-or-


 

Live Flight TrackerFlight Track Log ✈ ASQ4345 ✈ 21-Apr-2013 ✈ KIAH - KCRP

Flight Track Log - Related Links

Times and Time Zones

All times are in EDT time to prevent confusion due to time zone crossing. See the ASQ4345 flight status page for this flight to view local times or setup timezone preferences in your user account.

Time Position Orientation Groundspeed Altitude Reporting Facility
EDT Latitude Longitude Course Direction KTS MPH feet Rate Location/Type
10:09AM 29.9661 -95.3456 206° Southwest 153 176 900  Level Houston Center
10:10AM 29.9300 -95.2967 130° Southeast 220 253 3,300 2,160 Climbing Houston Center
10:11AM 29.8853 -95.2444 135° Southeast 254 292 5,400 2,640 Climbing Houston Center
10:12AM 29.7436 -95.4605 208° Southwest  Level FlightAware Approximate
10:12AM 29.8414 -95.1992 138° Southeast 265 305 7,900  Level Houston Center
10:13AM 29.6661 -95.5087 209° Southwest  Level FlightAware Approximate
10:13AM 29.7667 -95.1231 139° Southeast 286 329 10,300  Level Houston Center
10:14AM 29.5885 -95.5564 206° Southwest  Level FlightAware Approximate
10:14AM 29.6750 -95.0817 159° South 340 391 11,900  Level Houston Center
10:15AM 29.6022 -95.1414 216° Southwest 349 402 13,600 1,800 Climbing Houston Center
10:16AM 29.5503 -95.2219 233° Southwest 346 398 15,700 1,140 Climbing Houston Center
10:17AM 29.4814 -95.3333 235° Southwest 352 405 16,000 120 Climbing Houston Center
10:18AM 29.4206 -95.4319 235° Southwest 371 427 16,000  Level Houston Center
10:19AM 29.3594 -95.5300 234° Southwest 377 434 16,000  Level Houston Center
10:20AM 29.2972 -95.6278 234° Southwest 379 436 16,000  Level Houston Center
10:21AM 29.2397 -95.7206 235° Southwest 366 421 16,000  Level Houston Center
10:22AM 29.1808 -95.8103 233° Southwest 353 406 16,000  Level Houston Center
10:23AM 29.1061 -95.8961 225° Southwest 374 430 16,000  Level Houston Center
10:24AM 29.0333 -95.9839 227° Southwest 376 433 16,000  Level Houston Center
10:25AM 28.9617 -96.0708 227° Southwest 375 432 16,000  Level Houston Center
10:26AM 28.8761 -96.1736 226° Southwest 371 427 16,000  Level Houston Center
10:27AM 28.8039 -96.2589 226° Southwest 372 428 16,000  Level Houston Center
10:28AM 28.7328 -96.3444 227° Southwest 371 427 16,000  Level Houston Center
10:29AM 28.6600 -96.4297 226° Southwest 374 430 16,000  Level Houston Center
10:30AM 28.5867 -96.5153 226° Southwest 376 433 16,000  Level Houston Center
10:31AM 28.5144 -96.5992 226° Southwest 372 428 16,000 -120 Level Houston Center
10:32AM 28.4422 -96.6847 226° Southwest 373 429 15,800 -780 Descending Houston Center
10:33AM 28.4017 -96.7303 225° Southwest 374 430 14,900 -1,800 Descending Houston Center
10:33AM 28.3686 -96.7697 226° Southwest 375 432 14,000 -1,860 Descending Houston Center
10:34AM 28.3122 -96.8336 225° Southwest 377 434 12,700 -1,980 Descending Houston Center
10:34AM 28.2839 -96.8747 232° Southwest 376 433 12,000 -720 Descending Houston Center
10:35AM 28.2497 -96.9331 236° Southwest 369 425 12,000  Level Houston Center
10:35AM 28.2267 -96.9703 235° Southwest 366 421 12,000  Level Houston Center
10:36AM 28.1928 -97.0244 235° Southwest 369 425 12,000 -600 Level Houston Center
10:36AM 28.1669 -97.0636 233° Southwest 367 422 11,400 -1,320 Descending Houston Center
10:37AM 28.1369 -97.1106 234° Southwest 320 368 10,700 -1,260 Descending Houston Center
10:37AM 28.1178 -97.1400 234° Southwest 310 357 10,100 -1,620 Descending Houston Center
10:38AM 28.0922 -97.1811 235° Southwest 290 334 9,100 -1,680 Descending Houston Center
10:39AM 28.0719 -97.2125 234° Southwest 289 333 8,400 -1,800 Descending Houston Center
10:39AM 28.0436 -97.2567 234° Southwest 279 321 7,300 -1,680 Descending Houston Center
10:40AM 28.0278 -97.2819 235° Southwest 278 320 6,700 -1,380 Descending Houston Center
10:40AM 28.0042 -97.3192 234° Southwest 260 299 5,900 -1,380 Descending Houston Center
10:41AM 27.9864 -97.3447 232° Southwest 259 298 5,300 -1,500 Descending Houston Center
10:41AM 27.9700 -97.3714 235° Southwest 256 295 4,700 -1,500 Descending Houston Center
10:42AM 27.9442 -97.4122 234° Southwest 255 293 3,800 -1,380 Descending Houston Center
10:42AM 27.9264 -97.4364 230° Southwest 250 288 3,300 -660 Descending Houston Center
10:43AM 27.8817 -97.5089 235° Southwest 251 289 2,900 -600 Descending Houston Center
10:44AM 27.8514 -97.5581 235° Southwest 192 221 2,100 -840 Descending Houston Center